sensor_id;sensor_type;location;lat;lon;timestamp;P1;durP1;ratioP1;P2;durP2;ratioP2
41685;SDS011;27370;42.764;23.432;2022-09-24T00:01:58;10.05;;;6.03;;
41685;SDS011;27370;42.764;23.432;2022-09-24T00:04:25;10.98;;;6.25;;
41685;SDS011;27370;42.764;23.432;2022-09-24T00:06:51;10.13;;;6.18;;
41685;SDS011;27370;42.764;23.432;2022-09-24T00:09:19;9.65;;;6.03;;
41685;SDS011;27370;42.764;23.432;2022-09-24T00:11:49;11.30;;;6.65;;
41685;SDS011;27370;42.764;23.432;2022-09-24T00:14:17;11.75;;;7.13;;
41685;SDS011;27370;42.764;23.432;2022-09-24T00:16:43;10.32;;;6.45;;
41685;SDS011;27370;42.764;23.432;2022-09-24T00:19:10;11.80;;;7.95;;
41685;SDS011;27370;42.764;23.432;2022-09-24T00:21:37;12.65;;;9.05;;
41685;SDS011;27370;42.764;23.432;2022-09-24T00:24:05;13.75;;;8.82;;
41685;SDS011;27370;42.764;23.432;2022-09-24T00:26:32;12.35;;;8.68;;
41685;SDS011;27370;42.764;23.432;2022-09-24T00:29:21;14.43;;;8.80;;
41685;SDS011;27370;42.764;23.432;2022-09-24T00:31:49;13.20;;;9.00;;
41685;SDS011;27370;42.764;23.432;2022-09-24T00:34:16;11.80;;;8.50;;
41685;SDS011;27370;42.764;23.432;2022-09-24T00:36:42;12.77;;;9.27;;
41685;SDS011;27370;42.764;23.432;2022-09-24T00:39:10;14.13;;;8.73;;
41685;SDS011;27370;42.764;23.432;2022-09-24T00:41:36;10.93;;;6.85;;
41685;SDS011;27370;42.764;23.432;2022-09-24T00:47:06;12.45;;;7.72;;
41685;SDS011;27370;42.764;23.432;2022-09-24T00:49:38;11.00;;;7.57;;
41685;SDS011;27370;42.764;23.432;2022-09-24T00:52:05;12.25;;;7.45;;
41685;SDS011;27370;42.764;23.432;2022-09-24T00:54:31;11.23;;;7.30;;
41685;SDS011;27370;42.764;23.432;2022-09-24T00:56:57;11.35;;;7.13;;
41685;SDS011;27370;42.764;23.432;2022-09-24T00:59:24;11.35;;;7.15;;
41685;SDS011;27370;42.764;23.432;2022-09-24T01:01:52;11.48;;;6.50;;
41685;SDS011;27370;42.764;23.432;2022-09-24T01:04:23;11.55;;;7.20;;
41685;SDS011;27370;42.764;23.432;2022-09-24T01:06:51;10.23;;;6.35;;
41685;SDS011;27370;42.764;23.432;2022-09-24T01:09:20;9.95;;;6.15;;
41685;SDS011;27370;42.764;23.432;2022-09-24T01:22:57;10.65;;;5.60;;
41685;SDS011;27370;42.764;23.432;2022-09-24T01:25:43;9.75;;;5.65;;
41685;SDS011;27370;42.764;23.432;2022-09-24T01:31:34;9.32;;;5.40;;
41685;SDS011;27370;42.764;23.432;2022-09-24T01:34:05;9.38;;;5.43;;
41685;SDS011;27370;42.764;23.432;2022-09-24T01:36:34;9.35;;;5.53;;
41685;SDS011;27370;42.764;23.432;2022-09-24T01:39:02;10.07;;;5.50;;
41685;SDS011;27370;42.764;23.432;2022-09-24T01:41:30;10.50;;;5.88;;
41685;SDS011;27370;42.764;23.432;2022-09-24T01:43:58;10.13;;;6.03;;
41685;SDS011;27370;42.764;23.432;2022-09-24T01:46:25;11.02;;;5.75;;
41685;SDS011;27370;42.764;23.432;2022-09-24T01:48:51;10.65;;;6.00;;
41685;SDS011;27370;42.764;23.432;2022-09-24T01:51:22;10.23;;;5.90;;
41685;SDS011;27370;42.764;23.432;2022-09-24T01:53:56;9.95;;;6.28;;
41685;SDS011;27370;42.764;23.432;2022-09-24T01:56:36;9.80;;;5.60;;
41685;SDS011;27370;42.764;23.432;2022-09-24T01:59:31;9.65;;;5.68;;
41685;SDS011;27370;42.764;23.432;2022-09-24T02:04:50;12.57;;;7.70;;
41685;SDS011;27370;42.764;23.432;2022-09-24T02:07:23;11.55;;;7.60;;
41685;SDS011;27370;42.764;23.432;2022-09-24T02:09:54;11.63;;;7.47;;
41685;SDS011;27370;42.764;23.432;2022-09-24T02:12:41;12.05;;;7.07;;
41685;SDS011;27370;42.764;23.432;2022-09-24T02:15:10;11.68;;;7.30;;
41685;SDS011;27370;42.764;23.432;2022-09-24T02:17:42;14.57;;;8.55;;
41685;SDS011;27370;42.764;23.432;2022-09-24T02:20:17;19.73;;;10.00;;
41685;SDS011;27370;42.764;23.432;2022-09-24T02:22:46;12.00;;;6.57;;
41685;SDS011;27370;42.764;23.432;2022-09-24T02:25:15;10.15;;;5.05;;
41685;SDS011;27370;42.764;23.432;2022-09-24T02:27:45;8.10;;;4.22;;
41685;SDS011;27370;42.764;23.432;2022-09-24T02:30:10;9.02;;;4.28;;
41685;SDS011;27370;42.764;23.432;2022-09-24T02:32:38;8.00;;;4.47;;
41685;SDS011;27370;42.764;23.432;2022-09-24T02:35:07;8.70;;;4.80;;
41685;SDS011;27370;42.764;23.432;2022-09-24T02:37:37;7.65;;;4.45;;
41685;SDS011;27370;42.764;23.432;2022-09-24T02:40:06;7.72;;;4.05;;
41685;SDS011;27370;42.764;23.432;2022-09-24T02:42:33;8.57;;;4.53;;
41685;SDS011;27370;42.764;23.432;2022-09-24T02:44:59;9.32;;;5.30;;
41685;SDS011;27370;42.764;23.432;2022-09-24T02:47:27;9.35;;;5.32;;
41685;SDS011;27370;42.764;23.432;2022-09-24T02:49:53;9.15;;;5.15;;
41685;SDS011;27370;42.764;23.432;2022-09-24T02:52:20;8.15;;;4.65;;
41685;SDS011;27370;42.764;23.432;2022-09-24T02:54:46;12.20;;;5.30;;
41685;SDS011;27370;42.764;23.432;2022-09-24T02:57:12;9.98;;;4.90;;
41685;SDS011;27370;42.764;23.432;2022-09-24T02:59:37;8.38;;;4.50;;
41685;SDS011;27370;42.764;23.432;2022-09-24T03:02:03;9.02;;;5.00;;
41685;SDS011;27370;42.764;23.432;2022-09-24T03:04:29;9.75;;;5.00;;
41685;SDS011;27370;42.764;23.432;2022-09-24T03:06:55;9.30;;;5.00;;
41685;SDS011;27370;42.764;23.432;2022-09-24T03:09:21;11.25;;;4.90;;
41685;SDS011;27370;42.764;23.432;2022-09-24T03:11:47;8.30;;;4.68;;
41685;SDS011;27370;42.764;23.432;2022-09-24T03:14:12;9.30;;;5.28;;
41685;SDS011;27370;42.764;23.432;2022-09-24T03:16:38;8.90;;;5.15;;
41685;SDS011;27370;42.764;23.432;2022-09-24T03:19:04;9.63;;;5.35;;
41685;SDS011;27370;42.764;23.432;2022-09-24T03:21:30;9.65;;;5.45;;
41685;SDS011;27370;42.764;23.432;2022-09-24T03:23:55;10.73;;;6.10;;
41685;SDS011;27370;42.764;23.432;2022-09-24T03:26:21;10.82;;;6.43;;
41685;SDS011;27370;42.764;23.432;2022-09-24T03:28:46;10.07;;;6.40;;
41685;SDS011;27370;42.764;23.432;2022-09-24T03:31:12;10.50;;;6.20;;
41685;SDS011;27370;42.764;23.432;2022-09-24T03:33:39;11.98;;;6.68;;
41685;SDS011;27370;42.764;23.432;2022-09-24T03:38:37;10.48;;;6.10;;
41685;SDS011;27370;42.764;23.432;2022-09-24T03:41:05;9.90;;;6.30;;
41685;SDS011;27370;42.764;23.432;2022-09-24T03:43:32;11.55;;;6.22;;
41685;SDS011;27370;42.764;23.432;2022-09-24T03:45:57;11.70;;;6.13;;
41685;SDS011;27370;42.764;23.432;2022-09-24T03:48:23;10.43;;;6.32;;
41685;SDS011;27370;42.764;23.432;2022-09-24T03:50:50;11.27;;;6.63;;
41685;SDS011;27370;42.764;23.432;2022-09-24T03:53:16;12.23;;;6.80;;
41685;SDS011;27370;42.764;23.432;2022-09-24T03:55:42;12.60;;;7.18;;
41685;SDS011;27370;42.764;23.432;2022-09-24T03:58:13;12.93;;;7.15;;
41685;SDS011;27370;42.764;23.432;2022-09-24T04:00:39;10.85;;;6.68;;
41685;SDS011;27370;42.764;23.432;2022-09-24T04:03:05;12.35;;;7.60;;
41685;SDS011;27370;42.764;23.432;2022-09-24T04:05:31;13.65;;;7.35;;
41685;SDS011;27370;42.764;23.432;2022-09-24T04:07:57;12.65;;;7.68;;
41685;SDS011;27370;42.764;23.432;2022-09-24T04:10:24;12.30;;;7.30;;
41685;SDS011;27370;42.764;23.432;2022-09-24T04:12:50;12.15;;;7.88;;
41685;SDS011;27370;42.764;23.432;2022-09-24T04:15:16;13.27;;;8.88;;
41685;SDS011;27370;42.764;23.432;2022-09-24T04:17:53;12.60;;;7.63;;
41685;SDS011;27370;42.764;23.432;2022-09-24T04:20:20;18.45;;;7.20;;
41685;SDS011;27370;42.764;23.432;2022-09-24T04:22:50;17.75;;;7.15;;
41685;SDS011;27370;42.764;23.432;2022-09-24T04:25:18;13.50;;;7.05;;
41685;SDS011;27370;42.764;23.432;2022-09-24T04:27:44;13.20;;;7.72;;
41685;SDS011;27370;42.764;23.432;2022-09-24T04:30:10;14.65;;;7.25;;
41685;SDS011;27370;42.764;23.432;2022-09-24T04:32:37;12.98;;;6.55;;
41685;SDS011;27370;42.764;23.432;2022-09-24T04:35:03;10.00;;;5.80;;
41685;SDS011;27370;42.764;23.432;2022-09-24T04:37:29;11.73;;;5.97;;
41685;SDS011;27370;42.764;23.432;2022-09-24T04:39:54;11.48;;;6.25;;
41685;SDS011;27370;42.764;23.432;2022-09-24T04:42:20;21.50;;;8.20;;
41685;SDS011;27370;42.764;23.432;2022-09-24T04:44:46;12.82;;;8.57;;
41685;SDS011;27370;42.764;23.432;2022-09-24T04:47:15;14.15;;;8.57;;
41685;SDS011;27370;42.764;23.432;2022-09-24T04:49:41;12.95;;;8.57;;
41685;SDS011;27370;42.764;23.432;2022-09-24T04:52:10;14.68;;;10.18;;
41685;SDS011;27370;42.764;23.432;2022-09-24T04:54:42;13.38;;;9.25;;
41685;SDS011;27370;42.764;23.432;2022-09-24T04:57:09;13.90;;;10.02;;
41685;SDS011;27370;42.764;23.432;2022-09-24T04:59:35;20.38;;;9.93;;
41685;SDS011;27370;42.764;23.432;2022-09-24T05:02:00;341.40;;;20.42;;
41685;SDS011;27370;42.764;23.432;2022-09-24T05:04:26;369.25;;;22.38;;
41685;SDS011;27370;42.764;23.432;2022-09-24T05:06:51;415.13;;;25.02;;
41685;SDS011;27370;42.764;23.432;2022-09-24T05:09:17;340.85;;;25.17;;
41685;SDS011;27370;42.764;23.432;2022-09-24T05:11:42;477.67;;;31.40;;
41685;SDS011;27370;42.764;23.432;2022-09-24T05:14:08;430.63;;;27.83;;
41685;SDS011;27370;42.764;23.432;2022-09-24T05:16:34;365.17;;;25.95;;
41685;SDS011;27370;42.764;23.432;2022-09-24T05:18:59;330.98;;;24.30;;
41685;SDS011;27370;42.764;23.432;2022-09-24T05:21:25;382.23;;;25.13;;
41685;SDS011;27370;42.764;23.432;2022-09-24T05:23:51;299.58;;;23.05;;
41685;SDS011;27370;42.764;23.432;2022-09-24T05:26:17;230.02;;;21.70;;
41685;SDS011;27370;42.764;23.432;2022-09-24T05:29:01;157.05;;;20.33;;
41685;SDS011;27370;42.764;23.432;2022-09-24T05:31:26;142.07;;;21.13;;
41685;SDS011;27370;42.764;23.432;2022-09-24T05:33:52;165.15;;;25.48;;
41685;SDS011;27370;42.764;23.432;2022-09-24T05:36:18;152.88;;;22.90;;
41685;SDS011;27370;42.764;23.432;2022-09-24T05:38:44;202.20;;;22.17;;
41685;SDS011;27370;42.764;23.432;2022-09-24T05:41:09;226.73;;;22.90;;
41685;SDS011;27370;42.764;23.432;2022-09-24T05:43:34;253.65;;;22.63;;
41685;SDS011;27370;42.764;23.432;2022-09-24T05:46:00;198.57;;;21.05;;
41685;SDS011;27370;42.764;23.432;2022-09-24T05:48:26;290.55;;;25.02;;
41685;SDS011;27370;42.764;23.432;2022-09-24T05:50:51;76.43;;;14.45;;
41685;SDS011;27370;42.764;23.432;2022-09-24T05:53:19;236.02;;;17.85;;
41685;SDS011;27370;42.764;23.432;2022-09-24T05:55:46;183.00;;;15.70;;
41685;SDS011;27370;42.764;23.432;2022-09-24T05:58:12;115.18;;;14.20;;
41685;SDS011;27370;42.764;23.432;2022-09-24T06:00:37;150.68;;;14.85;;
41685;SDS011;27370;42.764;23.432;2022-09-24T06:03:07;142.68;;;16.15;;
41685;SDS011;27370;42.764;23.432;2022-09-24T06:05:58;75.07;;;12.38;;
41685;SDS011;27370;42.764;23.432;2022-09-24T06:08:26;63.47;;;12.77;;
41685;SDS011;27370;42.764;23.432;2022-09-24T06:10:56;22.35;;;11.13;;
41685;SDS011;27370;42.764;23.432;2022-09-24T06:13:26;15.27;;;9.63;;
41685;SDS011;27370;42.764;23.432;2022-09-24T06:15:58;14.73;;;8.90;;
41685;SDS011;27370;42.764;23.432;2022-09-24T06:18:28;14.88;;;9.90;;
41685;SDS011;27370;42.764;23.432;2022-09-24T06:20:53;15.18;;;10.20;;
41685;SDS011;27370;42.764;23.432;2022-09-24T06:23:19;14.93;;;10.00;;
41685;SDS011;27370;42.764;23.432;2022-09-24T06:25:48;14.07;;;10.00;;
41685;SDS011;27370;42.764;23.432;2022-09-24T06:28:15;14.27;;;9.45;;
41685;SDS011;27370;42.764;23.432;2022-09-24T06:30:40;15.63;;;9.60;;
41685;SDS011;27370;42.764;23.432;2022-09-24T06:33:07;13.55;;;9.13;;
41685;SDS011;27370;42.764;23.432;2022-09-24T06:35:41;14.48;;;10.30;;
41685;SDS011;27370;42.764;23.432;2022-09-24T06:38:13;16.30;;;10.73;;
41685;SDS011;27370;42.764;23.432;2022-09-24T06:40:40;14.68;;;10.75;;
41685;SDS011;27370;42.764;23.432;2022-09-24T06:43:06;15.35;;;11.13;;
41685;SDS011;27370;42.764;23.432;2022-09-24T06:45:35;15.73;;;11.52;;
41685;SDS011;27370;42.764;23.432;2022-09-24T06:48:01;15.77;;;10.93;;
41685;SDS011;27370;42.764;23.432;2022-09-24T06:50:28;14.60;;;9.88;;
41685;SDS011;27370;42.764;23.432;2022-09-24T06:52:56;16.73;;;10.95;;
41685;SDS011;27370;42.764;23.432;2022-09-24T06:55:21;16.58;;;10.85;;
41685;SDS011;27370;42.764;23.432;2022-09-24T06:57:47;18.17;;;11.20;;
41685;SDS011;27370;42.764;23.432;2022-09-24T07:00:13;19.42;;;12.00;;
41685;SDS011;27370;42.764;23.432;2022-09-24T07:02:40;16.27;;;10.50;;
41685;SDS011;27370;42.764;23.432;2022-09-24T07:05:06;17.55;;;11.45;;
41685;SDS011;27370;42.764;23.432;2022-09-24T07:07:33;17.60;;;11.30;;
41685;SDS011;27370;42.764;23.432;2022-09-24T07:09:59;14.10;;;9.50;;
41685;SDS011;27370;42.764;23.432;2022-09-24T07:12:30;29.13;;;14.10;;
41685;SDS011;27370;42.764;23.432;2022-09-24T07:14:57;15.48;;;8.90;;
41685;SDS011;27370;42.764;23.432;2022-09-24T07:17:24;15.75;;;10.13;;
41685;SDS011;27370;42.764;23.432;2022-09-24T07:19:50;13.88;;;9.38;;
41685;SDS011;27370;42.764;23.432;2022-09-24T07:22:16;13.43;;;8.77;;
41685;SDS011;27370;42.764;23.432;2022-09-24T07:24:42;18.50;;;10.15;;
41685;SDS011;27370;42.764;23.432;2022-09-24T07:27:07;12.50;;;8.25;;
41685;SDS011;27370;42.764;23.432;2022-09-24T07:29:33;12.35;;;7.63;;
41685;SDS011;27370;42.764;23.432;2022-09-24T07:31:59;11.93;;;7.07;;
41685;SDS011;27370;42.764;23.432;2022-09-24T07:34:25;12.15;;;7.13;;
41685;SDS011;27370;42.764;23.432;2022-09-24T07:36:51;12.18;;;6.72;;
41685;SDS011;27370;42.764;23.432;2022-09-24T07:39:16;12.18;;;6.22;;
41685;SDS011;27370;42.764;23.432;2022-09-24T07:41:44;9.45;;;6.10;;
41685;SDS011;27370;42.764;23.432;2022-09-24T07:44:10;9.32;;;5.25;;
41685;SDS011;27370;42.764;23.432;2022-09-24T07:46:35;10.98;;;5.88;;
41685;SDS011;27370;42.764;23.432;2022-09-24T07:49:02;9.38;;;5.18;;
41685;SDS011;27370;42.764;23.432;2022-09-24T07:51:28;9.07;;;5.05;;
41685;SDS011;27370;42.764;23.432;2022-09-24T07:53:54;8.95;;;5.05;;
41685;SDS011;27370;42.764;23.432;2022-09-24T07:56:20;9.45;;;5.75;;
41685;SDS011;27370;42.764;23.432;2022-09-24T07:58:50;9.73;;;5.97;;
41685;SDS011;27370;42.764;23.432;2022-09-24T08:03:42;10.65;;;5.97;;
41685;SDS011;27370;42.764;23.432;2022-09-24T08:06:08;11.45;;;5.38;;
41685;SDS011;27370;42.764;23.432;2022-09-24T08:08:34;9.02;;;5.30;;
41685;SDS011;27370;42.764;23.432;2022-09-24T08:11:03;15.88;;;6.55;;
41685;SDS011;27370;42.764;23.432;2022-09-24T08:13:30;12.50;;;5.95;;
41685;SDS011;27370;42.764;23.432;2022-09-24T08:15:58;12.48;;;5.70;;
41685;SDS011;27370;42.764;23.432;2022-09-24T08:18:25;12.43;;;4.85;;
41685;SDS011;27370;42.764;23.432;2022-09-24T08:20:52;11.00;;;5.28;;
41685;SDS011;27370;42.764;23.432;2022-09-24T08:23:18;10.50;;;5.10;;
41685;SDS011;27370;42.764;23.432;2022-09-24T08:25:45;10.70;;;4.13;;
41685;SDS011;27370;42.764;23.432;2022-09-24T08:28:11;8.73;;;3.97;;
41685;SDS011;27370;42.764;23.432;2022-09-24T08:30:37;6.93;;;3.65;;
41685;SDS011;27370;42.764;23.432;2022-09-24T08:35:33;8.57;;;3.67;;
41685;SDS011;27370;42.764;23.432;2022-09-24T08:37:59;7.65;;;4.10;;
41685;SDS011;27370;42.764;23.432;2022-09-24T08:40:26;8.73;;;3.92;;
41685;SDS011;27370;42.764;23.432;2022-09-24T08:42:58;7.68;;;3.88;;
41685;SDS011;27370;42.764;23.432;2022-09-24T08:45:39;6.88;;;3.70;;
41685;SDS011;27370;42.764;23.432;2022-09-24T08:48:28;7.75;;;3.58;;
41685;SDS011;27370;42.764;23.432;2022-09-24T08:50:58;7.63;;;3.60;;
41685;SDS011;27370;42.764;23.432;2022-09-24T08:53:28;8.10;;;4.00;;
41685;SDS011;27370;42.764;23.432;2022-09-24T08:55:58;8.13;;;3.58;;
41685;SDS011;27370;42.764;23.432;2022-09-24T09:12:03;8.60;;;4.15;;
41685;SDS011;27370;42.764;23.432;2022-09-24T09:17:08;9.68;;;3.60;;
41685;SDS011;27370;42.764;23.432;2022-09-24T09:19:47;9.63;;;3.67;;
41685;SDS011;27370;42.764;23.432;2022-09-24T09:22:19;9.45;;;3.53;;
41685;SDS011;27370;42.764;23.432;2022-09-24T09:24:50;9.30;;;3.72;;
41685;SDS011;27370;42.764;23.432;2022-09-24T09:27:17;10.95;;;3.58;;
41685;SDS011;27370;42.764;23.432;2022-09-24T09:29:44;7.50;;;2.95;;
41685;SDS011;27370;42.764;23.432;2022-09-24T09:32:36;8.73;;;3.20;;
41685;SDS011;27370;42.764;23.432;2022-09-24T09:38:14;8.15;;;3.20;;
41685;SDS011;27370;42.764;23.432;2022-09-24T09:43:36;5.65;;;2.75;;
41685;SDS011;27370;42.764;23.432;2022-09-24T09:46:21;6.05;;;3.08;;
41685;SDS011;27370;42.764;23.432;2022-09-24T09:48:52;8.95;;;3.35;;
41685;SDS011;27370;42.764;23.432;2022-09-24T09:51:25;7.40;;;3.10;;
41685;SDS011;27370;42.764;23.432;2022-09-24T09:56:24;7.90;;;3.30;;
41685;SDS011;27370;42.764;23.432;2022-09-24T09:58:59;7.18;;;3.03;;
41685;SDS011;27370;42.764;23.432;2022-09-24T10:01:31;7.35;;;3.22;;
41685;SDS011;27370;42.764;23.432;2022-09-24T10:03:58;5.82;;;2.95;;
41685;SDS011;27370;42.764;23.432;2022-09-24T10:06:29;5.60;;;2.83;;
41685;SDS011;27370;42.764;23.432;2022-09-24T10:09:06;6.22;;;3.00;;
41685;SDS011;27370;42.764;23.432;2022-09-24T10:11:44;6.63;;;2.97;;
41685;SDS011;27370;42.764;23.432;2022-09-24T10:14:13;8.25;;;2.88;;
41685;SDS011;27370;42.764;23.432;2022-09-24T10:16:41;7.20;;;2.60;;
41685;SDS011;27370;42.764;23.432;2022-09-24T10:19:22;5.30;;;2.60;;
41685;SDS011;27370;42.764;23.432;2022-09-24T10:21:50;4.35;;;2.40;;
41685;SDS011;27370;42.764;23.432;2022-09-24T10:24:21;8.10;;;2.95;;
41685;SDS011;27370;42.764;23.432;2022-09-24T10:26:49;4.57;;;2.70;;
41685;SDS011;27370;42.764;23.432;2022-09-24T10:29:16;4.60;;;2.63;;
41685;SDS011;27370;42.764;23.432;2022-09-24T10:32:04;5.05;;;2.53;;
41685;SDS011;27370;42.764;23.432;2022-09-24T10:34:30;5.97;;;2.70;;
41685;SDS011;27370;42.764;23.432;2022-09-24T10:37:00;5.10;;;2.80;;
41685;SDS011;27370;42.764;23.432;2022-09-24T10:39:27;5.35;;;2.58;;
41685;SDS011;27370;42.764;23.432;2022-09-24T10:41:55;6.65;;;2.67;;
41685;SDS011;27370;42.764;23.432;2022-09-24T10:44:22;7.07;;;2.78;;
41685;SDS011;27370;42.764;23.432;2022-09-24T11:05:11;4.93;;;2.10;;
41685;SDS011;27370;42.764;23.432;2022-09-24T11:13:17;2.88;;;1.90;;
41685;SDS011;27370;42.764;23.432;2022-09-24T11:41:43;3.60;;;1.88;;
41685;SDS011;27370;42.764;23.432;2022-09-24T11:55:02;2.60;;;2.00;;
41685;SDS011;27370;42.764;23.432;2022-09-24T11:57:39;3.63;;;1.98;;
41685;SDS011;27370;42.764;23.432;2022-09-24T12:02:47;3.55;;;2.17;;
41685;SDS011;27370;42.764;23.432;2022-09-24T12:05:27;2.92;;;1.90;;
41685;SDS011;27370;42.764;23.432;2022-09-24T12:08:06;3.47;;;2.00;;
41685;SDS011;27370;42.764;23.432;2022-09-24T12:18:39;10.02;;;2.30;;
41685;SDS011;27370;42.764;23.432;2022-09-24T12:21:10;3.35;;;1.88;;
41685;SDS011;27370;42.764;23.432;2022-09-24T12:23:40;3.30;;;1.80;;
41685;SDS011;27370;42.764;23.432;2022-09-24T12:26:10;4.10;;;1.80;;
41685;SDS011;27370;42.764;23.432;2022-09-24T12:32:13;3.03;;;1.90;;
41685;SDS011;27370;42.764;23.432;2022-09-24T12:35:18;2.28;;;1.73;;
41685;SDS011;27370;42.764;23.432;2022-09-24T12:37:57;5.47;;;2.50;;
41685;SDS011;27370;42.764;23.432;2022-09-24T12:42:58;5.60;;;2.20;;
41685;SDS011;27370;42.764;23.432;2022-09-24T12:45:27;6.05;;;2.50;;
41685;SDS011;27370;42.764;23.432;2022-09-24T12:47:55;4.22;;;2.13;;
41685;SDS011;27370;42.764;23.432;2022-09-24T12:50:27;3.80;;;2.10;;
41685;SDS011;27370;42.764;23.432;2022-09-24T12:52:56;4.90;;;2.30;;
41685;SDS011;27370;42.764;23.432;2022-09-24T12:55:23;4.25;;;2.03;;
41685;SDS011;27370;42.764;23.432;2022-09-24T12:57:53;3.25;;;1.73;;
41685;SDS011;27370;42.764;23.432;2022-09-24T13:03:01;4.60;;;2.00;;
41685;SDS011;27370;42.764;23.432;2022-09-24T13:10:59;3.50;;;2.13;;
41685;SDS011;27370;42.764;23.432;2022-09-24T13:13:30;4.45;;;2.10;;
41685;SDS011;27370;42.764;23.432;2022-09-24T13:18:25;2.20;;;1.70;;
41685;SDS011;27370;42.764;23.432;2022-09-24T13:20:59;3.88;;;1.98;;
41685;SDS011;27370;42.764;23.432;2022-09-24T13:26:03;4.60;;;1.77;;
41685;SDS011;27370;42.764;23.432;2022-09-24T13:28:32;4.05;;;1.83;;
41685;SDS011;27370;42.764;23.432;2022-09-24T13:46:49;3.75;;;1.90;;
41685;SDS011;27370;42.764;23.432;2022-09-24T13:49:20;2.58;;;1.85;;
41685;SDS011;27370;42.764;23.432;2022-09-24T13:51:51;3.30;;;1.90;;
41685;SDS011;27370;42.764;23.432;2022-09-24T13:54:32;3.78;;;2.10;;
41685;SDS011;27370;42.764;23.432;2022-09-24T13:57:11;5.25;;;2.00;;
41685;SDS011;27370;42.764;23.432;2022-09-24T13:59:42;4.97;;;1.98;;
41685;SDS011;27370;42.764;23.432;2022-09-24T14:02:23;4.05;;;1.83;;
41685;SDS011;27370;42.764;23.432;2022-09-24T14:04:56;3.97;;;1.85;;
41685;SDS011;27370;42.764;23.432;2022-09-24T14:07:25;3.28;;;2.00;;
41685;SDS011;27370;42.764;23.432;2022-09-24T14:10:13;4.25;;;2.20;;
41685;SDS011;27370;42.764;23.432;2022-09-24T14:12:39;6.72;;;2.00;;
41685;SDS011;27370;42.764;23.432;2022-09-24T14:15:15;7.07;;;2.10;;
41685;SDS011;27370;42.764;23.432;2022-09-24T14:17:41;3.80;;;2.03;;
41685;SDS011;27370;42.764;23.432;2022-09-24T14:20:11;6.10;;;2.10;;
41685;SDS011;27370;42.764;23.432;2022-09-24T14:22:40;3.38;;;1.60;;
41685;SDS011;27370;42.764;23.432;2022-09-24T14:25:09;4.45;;;2.20;;
41685;SDS011;27370;42.764;23.432;2022-09-24T14:27:45;5.63;;;1.98;;
41685;SDS011;27370;42.764;23.432;2022-09-24T14:30:20;5.15;;;2.15;;
41685;SDS011;27370;42.764;23.432;2022-09-24T14:32:57;6.50;;;2.92;;
41685;SDS011;27370;42.764;23.432;2022-09-24T14:35:27;3.53;;;1.90;;
41685;SDS011;27370;42.764;23.432;2022-09-24T14:38:03;7.00;;;2.05;;
41685;SDS011;27370;42.764;23.432;2022-09-24T14:41:13;9.38;;;2.20;;
41685;SDS011;27370;42.764;23.432;2022-09-24T14:48:43;6.60;;;2.40;;
41685;SDS011;27370;42.764;23.432;2022-09-24T14:51:27;7.03;;;2.40;;
41685;SDS011;27370;42.764;23.432;2022-09-24T14:54:02;9.40;;;2.33;;
41685;SDS011;27370;42.764;23.432;2022-09-24T14:56:43;7.13;;;2.00;;
41685;SDS011;27370;42.764;23.432;2022-09-24T14:59:13;3.33;;;1.85;;
41685;SDS011;27370;42.764;23.432;2022-09-24T15:01:40;4.55;;;2.00;;
41685;SDS011;27370;42.764;23.432;2022-09-24T15:04:14;4.15;;;1.90;;
41685;SDS011;27370;42.764;23.432;2022-09-24T15:06:45;4.60;;;2.33;;
41685;SDS011;27370;42.764;23.432;2022-09-24T15:09:25;5.65;;;2.17;;
41685;SDS011;27370;42.764;23.432;2022-09-24T15:11:53;3.05;;;1.90;;
41685;SDS011;27370;42.764;23.432;2022-09-24T15:14:21;4.38;;;2.00;;
41685;SDS011;27370;42.764;23.432;2022-09-24T15:16:52;5.05;;;2.08;;
41685;SDS011;27370;42.764;23.432;2022-09-24T15:19:19;5.05;;;2.10;;
41685;SDS011;27370;42.764;23.432;2022-09-24T15:21:51;7.50;;;2.15;;
41685;SDS011;27370;42.764;23.432;2022-09-24T15:24:20;4.07;;;2.05;;
41685;SDS011;27370;42.764;23.432;2022-09-24T15:26:47;3.50;;;2.03;;
41685;SDS011;27370;42.764;23.432;2022-09-24T15:29:25;3.45;;;1.92;;
41685;SDS011;27370;42.764;23.432;2022-09-24T15:31:51;3.97;;;2.08;;
41685;SDS011;27370;42.764;23.432;2022-09-24T15:34:18;3.22;;;2.03;;
41685;SDS011;27370;42.764;23.432;2022-09-24T15:36:44;2.42;;;1.80;;
41685;SDS011;27370;42.764;23.432;2022-09-24T15:39:11;2.85;;;1.85;;
41685;SDS011;27370;42.764;23.432;2022-09-24T15:41:36;3.33;;;1.90;;
41685;SDS011;27370;42.764;23.432;2022-09-24T15:44:02;4.43;;;1.98;;
41685;SDS011;27370;42.764;23.432;2022-09-24T15:46:29;3.83;;;1.92;;
41685;SDS011;27370;42.764;23.432;2022-09-24T15:48:55;6.40;;;2.00;;
41685;SDS011;27370;42.764;23.432;2022-09-24T15:51:21;9.27;;;2.50;;
41685;SDS011;27370;42.764;23.432;2022-09-24T15:53:47;6.07;;;2.20;;
41685;SDS011;27370;42.764;23.432;2022-09-24T15:56:14;6.65;;;2.42;;
41685;SDS011;27370;42.764;23.432;2022-09-24T15:58:40;7.03;;;2.20;;
41685;SDS011;27370;42.764;23.432;2022-09-24T16:01:08;4.95;;;2.20;;
41685;SDS011;27370;42.764;23.432;2022-09-24T16:03:39;6.95;;;2.47;;
41685;SDS011;27370;42.764;23.432;2022-09-24T16:06:05;5.40;;;2.50;;
41685;SDS011;27370;42.764;23.432;2022-09-24T16:08:30;6.43;;;2.58;;
41685;SDS011;27370;42.764;23.432;2022-09-24T16:10:56;4.40;;;2.30;;
41685;SDS011;27370;42.764;23.432;2022-09-24T16:13:21;3.92;;;2.58;;
41685;SDS011;27370;42.764;23.432;2022-09-24T16:15:47;4.60;;;2.40;;
41685;SDS011;27370;42.764;23.432;2022-09-24T16:18:14;5.53;;;2.47;;
41685;SDS011;27370;42.764;23.432;2022-09-24T16:20:41;5.75;;;3.10;;
41685;SDS011;27370;42.764;23.432;2022-09-24T16:23:12;8.20;;;2.85;;
41685;SDS011;27370;42.764;23.432;2022-09-24T16:25:40;8.98;;;2.90;;
41685;SDS011;27370;42.764;23.432;2022-09-24T16:28:07;21.13;;;4.53;;
41685;SDS011;27370;42.764;23.432;2022-09-24T16:30:34;7.78;;;3.10;;
41685;SDS011;27370;42.764;23.432;2022-09-24T16:33:00;12.10;;;3.45;;
41685;SDS011;27370;42.764;23.432;2022-09-24T16:35:26;9.07;;;3.00;;
41685;SDS011;27370;42.764;23.432;2022-09-24T16:37:51;7.03;;;3.00;;
41685;SDS011;27370;42.764;23.432;2022-09-24T16:40:17;5.88;;;3.33;;
41685;SDS011;27370;42.764;23.432;2022-09-24T16:42:42;11.07;;;3.53;;
41685;SDS011;27370;42.764;23.432;2022-09-24T16:45:08;6.30;;;3.20;;
41685;SDS011;27370;42.764;23.432;2022-09-24T16:47:34;5.50;;;3.25;;
41685;SDS011;27370;42.764;23.432;2022-09-24T16:50:00;6.10;;;2.95;;
41685;SDS011;27370;42.764;23.432;2022-09-24T16:52:28;7.40;;;3.55;;
41685;SDS011;27370;42.764;23.432;2022-09-24T16:54:55;6.13;;;3.20;;
41685;SDS011;27370;42.764;23.432;2022-09-24T16:57:21;8.05;;;3.30;;
41685;SDS011;27370;42.764;23.432;2022-09-24T16:59:47;5.28;;;3.08;;
41685;SDS011;27370;42.764;23.432;2022-09-24T17:02:12;5.35;;;2.80;;
41685;SDS011;27370;42.764;23.432;2022-09-24T17:04:38;6.30;;;3.60;;
41685;SDS011;27370;42.764;23.432;2022-09-24T17:07:04;7.00;;;3.28;;
41685;SDS011;27370;42.764;23.432;2022-09-24T17:09:29;6.38;;;3.85;;
41685;SDS011;27370;42.764;23.432;2022-09-24T17:12:13;7.47;;;4.05;;
41685;SDS011;27370;42.764;23.432;2022-09-24T17:14:39;7.80;;;4.18;;
41685;SDS011;27370;42.764;23.432;2022-09-24T17:17:05;8.77;;;4.20;;
41685;SDS011;27370;42.764;23.432;2022-09-24T17:19:32;8.13;;;3.95;;
41685;SDS011;27370;42.764;23.432;2022-09-24T17:21:57;8.30;;;3.90;;